sensor_id;sensor_type;location;lat;lon;timestamp;P1;durP1;ratioP1;P2;durP2;ratioP2
71464;SDS011;59274;49.874;9.154;2023-01-08T00:01:04;16.37;;;7.90;;
71464;SDS011;59274;49.874;9.154;2023-01-08T00:03:31;16.25;;;7.95;;
71464;SDS011;59274;49.874;9.154;2023-01-08T00:06:00;14.10;;;7.10;;
71464;SDS011;59274;49.874;9.154;2023-01-08T00:08:27;14.10;;;7.07;;
71464;SDS011;59274;49.874;9.154;2023-01-08T00:10:54;14.18;;;7.35;;
71464;SDS011;59274;49.874;9.154;2023-01-08T00:13:20;14.25;;;6.93;;
71464;SDS011;59274;49.874;9.154;2023-01-08T00:15:45;13.83;;;7.27;;
71464;SDS011;59274;49.874;9.154;2023-01-08T00:18:11;13.73;;;7.30;;
71464;SDS011;59274;49.874;9.154;2023-01-08T00:20:39;16.00;;;7.68;;
71464;SDS011;59274;49.874;9.154;2023-01-08T00:23:08;14.33;;;6.90;;
71464;SDS011;59274;49.874;9.154;2023-01-08T00:25:35;15.82;;;7.07;;
71464;SDS011;59274;49.874;9.154;2023-01-08T00:28:01;14.47;;;7.50;;
71464;SDS011;59274;49.874;9.154;2023-01-08T00:30:26;12.93;;;6.65;;
71464;SDS011;59274;49.874;9.154;2023-01-08T00:32:52;12.90;;;6.90;;
71464;SDS011;59274;49.874;9.154;2023-01-08T00:35:17;13.63;;;6.73;;
71464;SDS011;59274;49.874;9.154;2023-01-08T00:37:42;14.30;;;7.30;;
71464;SDS011;59274;49.874;9.154;2023-01-08T00:40:08;13.23;;;6.80;;
71464;SDS011;59274;49.874;9.154;2023-01-08T00:42:34;14.60;;;6.95;;
71464;SDS011;59274;49.874;9.154;2023-01-08T00:44:59;12.30;;;6.63;;
71464;SDS011;59274;49.874;9.154;2023-01-08T00:47:24;13.13;;;6.90;;
71464;SDS011;59274;49.874;9.154;2023-01-08T00:49:50;14.07;;;7.60;;
71464;SDS011;59274;49.874;9.154;2023-01-08T00:52:15;13.65;;;6.68;;
71464;SDS011;59274;49.874;9.154;2023-01-08T00:54:41;16.60;;;8.15;;
71464;SDS011;59274;49.874;9.154;2023-01-08T00:57:06;15.40;;;7.60;;
71464;SDS011;59274;49.874;9.154;2023-01-08T00:59:31;14.77;;;7.47;;
71464;SDS011;59274;49.874;9.154;2023-01-08T01:01:57;12.63;;;6.80;;
71464;SDS011;59274;49.874;9.154;2023-01-08T01:04:24;14.63;;;6.67;;
71464;SDS011;59274;49.874;9.154;2023-01-08T01:06:50;14.00;;;7.20;;
71464;SDS011;59274;49.874;9.154;2023-01-08T01:09:15;13.73;;;6.83;;
71464;SDS011;59274;49.874;9.154;2023-01-08T01:11:41;13.68;;;7.18;;
71464;SDS011;59274;49.874;9.154;2023-01-08T01:14:06;12.27;;;6.45;;
71464;SDS011;59274;49.874;9.154;2023-01-08T01:16:31;12.73;;;6.13;;
71464;SDS011;59274;49.874;9.154;2023-01-08T01:18:58;13.38;;;6.60;;
71464;SDS011;59274;49.874;9.154;2023-01-08T01:21:28;13.20;;;6.43;;
71464;SDS011;59274;49.874;9.154;2023-01-08T01:24:00;13.15;;;6.35;;
71464;SDS011;59274;49.874;9.154;2023-01-08T01:26:27;12.13;;;6.20;;
71464;SDS011;59274;49.874;9.154;2023-01-08T01:28:56;12.65;;;6.30;;
71464;SDS011;59274;49.874;9.154;2023-01-08T01:31:23;11.48;;;6.25;;
71464;SDS011;59274;49.874;9.154;2023-01-08T01:33:50;12.90;;;6.87;;
71464;SDS011;59274;49.874;9.154;2023-01-08T01:36:16;11.75;;;6.05;;
71464;SDS011;59274;49.874;9.154;2023-01-08T01:38:44;10.70;;;5.30;;
71464;SDS011;59274;49.874;9.154;2023-01-08T01:41:24;12.13;;;5.90;;
71464;SDS011;59274;49.874;9.154;2023-01-08T01:43:50;11.43;;;5.68;;
71464;SDS011;59274;49.874;9.154;2023-01-08T01:46:18;10.20;;;5.13;;
71464;SDS011;59274;49.874;9.154;2023-01-08T01:48:45;12.32;;;5.45;;
71464;SDS011;59274;49.874;9.154;2023-01-08T01:51:14;12.05;;;6.03;;
71464;SDS011;59274;49.874;9.154;2023-01-08T01:53:39;12.20;;;6.67;;
71464;SDS011;59274;49.874;9.154;2023-01-08T01:56:06;11.20;;;5.43;;
71464;SDS011;59274;49.874;9.154;2023-01-08T01:58:33;11.85;;;5.47;;
71464;SDS011;59274;49.874;9.154;2023-01-08T02:01:00;13.00;;;5.30;;
71464;SDS011;59274;49.874;9.154;2023-01-08T02:03:29;10.07;;;4.68;;
71464;SDS011;59274;49.874;9.154;2023-01-08T02:14:11;9.82;;;4.95;;
71464;SDS011;59274;49.874;9.154;2023-01-08T02:16:56;9.82;;;5.15;;
71464;SDS011;59274;49.874;9.154;2023-01-08T02:22:02;9.20;;;4.47;;
71464;SDS011;59274;49.874;9.154;2023-01-08T02:24:44;9.88;;;4.97;;
71464;SDS011;59274;49.874;9.154;2023-01-08T02:27:21;11.23;;;4.65;;
71464;SDS011;59274;49.874;9.154;2023-01-08T02:29:52;10.50;;;4.70;;
71464;SDS011;59274;49.874;9.154;2023-01-08T02:32:21;10.38;;;5.00;;
71464;SDS011;59274;49.874;9.154;2023-01-08T02:34:50;10.73;;;4.90;;
71464;SDS011;59274;49.874;9.154;2023-01-08T02:37:15;9.98;;;4.70;;
71464;SDS011;59274;49.874;9.154;2023-01-08T02:42:39;10.30;;;4.75;;
71464;SDS011;59274;49.874;9.154;2023-01-08T02:45:15;9.95;;;4.93;;
71464;SDS011;59274;49.874;9.154;2023-01-08T02:53:58;10.45;;;5.25;;
71464;SDS011;59274;49.874;9.154;2023-01-08T02:56:32;10.00;;;4.88;;
71464;SDS011;59274;49.874;9.154;2023-01-08T02:59:00;8.93;;;4.63;;
71464;SDS011;59274;49.874;9.154;2023-01-08T03:01:29;10.77;;;4.80;;
71464;SDS011;59274;49.874;9.154;2023-01-08T03:03:57;10.73;;;5.38;;
71464;SDS011;59274;49.874;9.154;2023-01-08T03:06:26;10.18;;;5.03;;
71464;SDS011;59274;49.874;9.154;2023-01-08T03:08:53;10.75;;;5.28;;
71464;SDS011;59274;49.874;9.154;2023-01-08T03:11:22;10.87;;;5.10;;
71464;SDS011;59274;49.874;9.154;2023-01-08T03:16:28;11.32;;;5.18;;
71464;SDS011;59274;49.874;9.154;2023-01-08T03:19:08;8.50;;;4.40;;
71464;SDS011;59274;49.874;9.154;2023-01-08T03:21:47;10.37;;;5.10;;
71464;SDS011;59274;49.874;9.154;2023-01-08T03:24:15;12.27;;;5.63;;
71464;SDS011;59274;49.874;9.154;2023-01-08T03:26:44;11.90;;;5.00;;
71464;SDS011;59274;49.874;9.154;2023-01-08T03:29:13;10.10;;;5.07;;
71464;SDS011;59274;49.874;9.154;2023-01-08T03:31:42;12.85;;;5.70;;
71464;SDS011;59274;49.874;9.154;2023-01-08T03:34:10;11.13;;;5.20;;
71464;SDS011;59274;49.874;9.154;2023-01-08T03:36:39;10.65;;;4.95;;
71464;SDS011;59274;49.874;9.154;2023-01-08T03:39:11;11.93;;;5.72;;
71464;SDS011;59274;49.874;9.154;2023-01-08T03:41:42;15.75;;;6.93;;
71464;SDS011;59274;49.874;9.154;2023-01-08T03:44:08;14.10;;;6.53;;
71464;SDS011;59274;49.874;9.154;2023-01-08T03:46:35;14.83;;;7.20;;
71464;SDS011;59274;49.874;9.154;2023-01-08T03:49:04;15.40;;;7.05;;
71464;SDS011;59274;49.874;9.154;2023-01-08T03:51:39;13.18;;;6.13;;
71464;SDS011;59274;49.874;9.154;2023-01-08T03:54:08;13.43;;;6.38;;
71464;SDS011;59274;49.874;9.154;2023-01-08T03:56:37;14.00;;;5.90;;
71464;SDS011;59274;49.874;9.154;2023-01-08T03:59:03;13.43;;;5.90;;
71464;SDS011;59274;49.874;9.154;2023-01-08T04:01:28;11.03;;;5.80;;
71464;SDS011;59274;49.874;9.154;2023-01-08T04:03:54;10.40;;;5.67;;
71464;SDS011;59274;49.874;9.154;2023-01-08T04:06:19;12.37;;;6.37;;
71464;SDS011;59274;49.874;9.154;2023-01-08T04:08:48;13.88;;;6.75;;
71464;SDS011;59274;49.874;9.154;2023-01-08T04:11:13;15.07;;;7.00;;
71464;SDS011;59274;49.874;9.154;2023-01-08T04:13:38;14.38;;;6.75;;
71464;SDS011;59274;49.874;9.154;2023-01-08T04:16:04;12.23;;;6.20;;
71464;SDS011;59274;49.874;9.154;2023-01-08T04:18:30;11.60;;;5.97;;
71464;SDS011;59274;49.874;9.154;2023-01-08T04:20:55;10.68;;;5.40;;
71464;SDS011;59274;49.874;9.154;2023-01-08T04:23:21;11.20;;;4.90;;
71464;SDS011;59274;49.874;9.154;2023-01-08T04:25:46;14.23;;;6.18;;
71464;SDS011;59274;49.874;9.154;2023-01-08T04:28:12;10.50;;;5.20;;
71464;SDS011;59274;49.874;9.154;2023-01-08T04:30:37;13.57;;;5.67;;
71464;SDS011;59274;49.874;9.154;2023-01-08T04:33:03;11.63;;;5.80;;
71464;SDS011;59274;49.874;9.154;2023-01-08T04:35:28;10.43;;;4.70;;
71464;SDS011;59274;49.874;9.154;2023-01-08T04:37:54;8.80;;;4.47;;
71464;SDS011;59274;49.874;9.154;2023-01-08T04:40:19;10.23;;;4.57;;
71464;SDS011;59274;49.874;9.154;2023-01-08T04:42:44;10.33;;;4.97;;
71464;SDS011;59274;49.874;9.154;2023-01-08T04:45:10;10.70;;;5.07;;
71464;SDS011;59274;49.874;9.154;2023-01-08T04:47:35;10.10;;;4.80;;
71464;SDS011;59274;49.874;9.154;2023-01-08T04:50:00;10.47;;;4.90;;
71464;SDS011;59274;49.874;9.154;2023-01-08T04:52:26;10.53;;;4.70;;
71464;SDS011;59274;49.874;9.154;2023-01-08T04:54:52;6.97;;;3.40;;
71464;SDS011;59274;49.874;9.154;2023-01-08T04:57:18;8.30;;;4.00;;
71464;SDS011;59274;49.874;9.154;2023-01-08T04:59:43;8.77;;;3.53;;
71464;SDS011;59274;49.874;9.154;2023-01-08T05:02:09;10.70;;;3.90;;
71464;SDS011;59274;49.874;9.154;2023-01-08T05:04:34;9.10;;;3.97;;
71464;SDS011;59274;49.874;9.154;2023-01-08T05:06:59;7.53;;;3.70;;
71464;SDS011;59274;49.874;9.154;2023-01-08T05:09:25;8.73;;;4.20;;
71464;SDS011;59274;49.874;9.154;2023-01-08T05:11:50;8.43;;;3.43;;
71464;SDS011;59274;49.874;9.154;2023-01-08T05:14:15;9.73;;;3.50;;
71464;SDS011;59274;49.874;9.154;2023-01-08T05:16:41;8.15;;;3.90;;
71464;SDS011;59274;49.874;9.154;2023-01-08T05:19:06;8.23;;;3.90;;
71464;SDS011;59274;49.874;9.154;2023-01-08T05:21:32;8.70;;;4.13;;
71464;SDS011;59274;49.874;9.154;2023-01-08T05:23:57;10.57;;;4.00;;
71464;SDS011;59274;49.874;9.154;2023-01-08T05:26:23;9.18;;;3.78;;
71464;SDS011;59274;49.874;9.154;2023-01-08T05:28:48;7.83;;;3.73;;
71464;SDS011;59274;49.874;9.154;2023-01-08T05:31:14;7.73;;;3.70;;
71464;SDS011;59274;49.874;9.154;2023-01-08T05:33:40;8.07;;;3.60;;
71464;SDS011;59274;49.874;9.154;2023-01-08T05:36:06;7.55;;;3.50;;
71464;SDS011;59274;49.874;9.154;2023-01-08T05:38:35;7.68;;;3.80;;
71464;SDS011;59274;49.874;9.154;2023-01-08T05:41:01;8.35;;;3.72;;
71464;SDS011;59274;49.874;9.154;2023-01-08T05:43:27;9.43;;;4.10;;
71464;SDS011;59274;49.874;9.154;2023-01-08T05:45:53;9.57;;;4.13;;
71464;SDS011;59274;49.874;9.154;2023-01-08T05:48:18;8.33;;;3.83;;
71464;SDS011;59274;49.874;9.154;2023-01-08T05:50:44;8.27;;;4.03;;
71464;SDS011;59274;49.874;9.154;2023-01-08T05:53:09;7.87;;;3.90;;
71464;SDS011;59274;49.874;9.154;2023-01-08T05:55:35;7.82;;;3.67;;
71464;SDS011;59274;49.874;9.154;2023-01-08T05:58:01;8.63;;;3.90;;
71464;SDS011;59274;49.874;9.154;2023-01-08T06:00:30;9.27;;;4.03;;
71464;SDS011;59274;49.874;9.154;2023-01-08T06:02:56;11.45;;;4.63;;
71464;SDS011;59274;49.874;9.154;2023-01-08T06:05:21;12.23;;;5.10;;
71464;SDS011;59274;49.874;9.154;2023-01-08T06:07:47;11.32;;;5.30;;
71464;SDS011;59274;49.874;9.154;2023-01-08T06:10:12;11.87;;;5.87;;
71464;SDS011;59274;49.874;9.154;2023-01-08T06:12:38;15.33;;;5.50;;
71464;SDS011;59274;49.874;9.154;2023-01-08T06:15:03;10.97;;;5.23;;
71464;SDS011;59274;49.874;9.154;2023-01-08T06:17:29;12.20;;;4.90;;
71464;SDS011;59274;49.874;9.154;2023-01-08T06:19:55;13.35;;;5.13;;
71464;SDS011;59274;49.874;9.154;2023-01-08T06:22:21;11.00;;;5.47;;
71464;SDS011;59274;49.874;9.154;2023-01-08T06:24:46;10.70;;;5.03;;
71464;SDS011;59274;49.874;9.154;2023-01-08T06:27:12;10.83;;;5.40;;
71464;SDS011;59274;49.874;9.154;2023-01-08T06:29:37;10.65;;;5.00;;
71464;SDS011;59274;49.874;9.154;2023-01-08T06:32:02;9.57;;;4.97;;
71464;SDS011;59274;49.874;9.154;2023-01-08T06:34:28;12.27;;;5.07;;
71464;SDS011;59274;49.874;9.154;2023-01-08T06:36:53;12.27;;;5.73;;
71464;SDS011;59274;49.874;9.154;2023-01-08T06:39:19;12.43;;;5.28;;
71464;SDS011;59274;49.874;9.154;2023-01-08T06:41:44;9.43;;;4.68;;
71464;SDS011;59274;49.874;9.154;2023-01-08T06:44:10;11.80;;;4.87;;
71464;SDS011;59274;49.874;9.154;2023-01-08T06:46:35;11.50;;;5.37;;
71464;SDS011;59274;49.874;9.154;2023-01-08T06:49:04;10.32;;;5.07;;
71464;SDS011;59274;49.874;9.154;2023-01-08T06:51:31;10.65;;;4.78;;
71464;SDS011;59274;49.874;9.154;2023-01-08T06:53:56;10.17;;;5.10;;
71464;SDS011;59274;49.874;9.154;2023-01-08T06:56:22;11.87;;;5.20;;
71464;SDS011;59274;49.874;9.154;2023-01-08T06:58:47;10.50;;;4.83;;
71464;SDS011;59274;49.874;9.154;2023-01-08T07:01:13;9.35;;;4.28;;
71464;SDS011;59274;49.874;9.154;2023-01-08T07:03:39;12.23;;;5.47;;
71464;SDS011;59274;49.874;9.154;2023-01-08T07:06:05;10.05;;;4.80;;
71464;SDS011;59274;49.874;9.154;2023-01-08T07:08:31;10.33;;;4.40;;
71464;SDS011;59274;49.874;9.154;2023-01-08T07:11:00;9.67;;;4.87;;
71464;SDS011;59274;49.874;9.154;2023-01-08T07:13:27;9.95;;;4.30;;
71464;SDS011;59274;49.874;9.154;2023-01-08T07:15:53;8.45;;;4.15;;
71464;SDS011;59274;49.874;9.154;2023-01-08T07:18:20;10.57;;;4.60;;
71464;SDS011;59274;49.874;9.154;2023-01-08T07:20:46;9.37;;;4.73;;
71464;SDS011;59274;49.874;9.154;2023-01-08T07:23:12;9.50;;;4.63;;
71464;SDS011;59274;49.874;9.154;2023-01-08T07:25:38;9.23;;;4.37;;
71464;SDS011;59274;49.874;9.154;2023-01-08T07:28:04;9.05;;;4.80;;
71464;SDS011;59274;49.874;9.154;2023-01-08T07:30:29;18.80;;;6.83;;
71464;SDS011;59274;49.874;9.154;2023-01-08T07:32:58;15.32;;;6.03;;
71464;SDS011;59274;49.874;9.154;2023-01-08T07:35:24;17.87;;;7.30;;
71464;SDS011;59274;49.874;9.154;2023-01-08T07:37:50;10.00;;;4.65;;
71464;SDS011;59274;49.874;9.154;2023-01-08T07:40:15;9.07;;;4.60;;
71464;SDS011;59274;49.874;9.154;2023-01-08T07:42:40;10.90;;;4.20;;
71464;SDS011;59274;49.874;9.154;2023-01-08T07:45:06;9.93;;;4.33;;
71464;SDS011;59274;49.874;9.154;2023-01-08T07:47:32;10.52;;;4.30;;
71464;SDS011;59274;49.874;9.154;2023-01-08T07:49:57;9.50;;;4.53;;
71464;SDS011;59274;49.874;9.154;2023-01-08T07:52:23;9.88;;;4.35;;
71464;SDS011;59274;49.874;9.154;2023-01-08T07:54:48;9.00;;;3.97;;
71464;SDS011;59274;49.874;9.154;2023-01-08T07:57:14;10.40;;;4.30;;
71464;SDS011;59274;49.874;9.154;2023-01-08T07:59:39;7.77;;;3.90;;
71464;SDS011;59274;49.874;9.154;2023-01-08T08:02:04;8.10;;;4.03;;
71464;SDS011;59274;49.874;9.154;2023-01-08T08:04:30;11.65;;;4.35;;
71464;SDS011;59274;49.874;9.154;2023-01-08T08:06:56;9.27;;;4.23;;
71464;SDS011;59274;49.874;9.154;2023-01-08T08:09:21;10.80;;;5.60;;
71464;SDS011;59274;49.874;9.154;2023-01-08T08:11:47;9.37;;;4.30;;
71464;SDS011;59274;49.874;9.154;2023-01-08T08:14:12;10.40;;;4.50;;
71464;SDS011;59274;49.874;9.154;2023-01-08T08:16:38;8.43;;;4.10;;
71464;SDS011;59274;49.874;9.154;2023-01-08T08:19:03;9.88;;;4.10;;
71464;SDS011;59274;49.874;9.154;2023-01-08T08:21:29;9.17;;;4.10;;
71464;SDS011;59274;49.874;9.154;2023-01-08T08:23:54;8.77;;;4.00;;
71464;SDS011;59274;49.874;9.154;2023-01-08T08:26:20;10.65;;;4.30;;
71464;SDS011;59274;49.874;9.154;2023-01-08T08:28:49;11.05;;;4.70;;
71464;SDS011;59274;49.874;9.154;2023-01-08T08:31:14;10.57;;;5.20;;
71464;SDS011;59274;49.874;9.154;2023-01-08T08:33:40;8.87;;;4.40;;
71464;SDS011;59274;49.874;9.154;2023-01-08T08:36:06;10.03;;;4.60;;
71464;SDS011;59274;49.874;9.154;2023-01-08T08:38:32;9.57;;;5.07;;
71464;SDS011;59274;49.874;9.154;2023-01-08T08:40:58;9.07;;;4.78;;
71464;SDS011;59274;49.874;9.154;2023-01-08T08:43:23;10.93;;;4.85;;
71464;SDS011;59274;49.874;9.154;2023-01-08T08:45:48;13.47;;;4.83;;
71464;SDS011;59274;49.874;9.154;2023-01-08T08:48:14;9.20;;;4.40;;
71464;SDS011;59274;49.874;9.154;2023-01-08T08:50:40;9.68;;;4.28;;
71464;SDS011;59274;49.874;9.154;2023-01-08T08:53:06;10.05;;;4.50;;
71464;SDS011;59274;49.874;9.154;2023-01-08T08:55:33;8.47;;;3.70;;
71464;SDS011;59274;49.874;9.154;2023-01-08T08:58:09;8.10;;;3.75;;
71464;SDS011;59274;49.874;9.154;2023-01-08T09:00:40;7.55;;;3.63;;
71464;SDS011;59274;49.874;9.154;2023-01-08T09:03:09;7.50;;;3.60;;
71464;SDS011;59274;49.874;9.154;2023-01-08T09:05:37;8.52;;;3.75;;
71464;SDS011;59274;49.874;9.154;2023-01-08T09:08:02;8.43;;;4.03;;
71464;SDS011;59274;49.874;9.154;2023-01-08T09:10:28;8.38;;;4.32;;
71464;SDS011;59274;49.874;9.154;2023-01-08T09:12:53;9.80;;;4.00;;
71464;SDS011;59274;49.874;9.154;2023-01-08T09:15:19;8.37;;;4.27;;
71464;SDS011;59274;49.874;9.154;2023-01-08T09:17:45;9.48;;;4.50;;
71464;SDS011;59274;49.874;9.154;2023-01-08T09:20:16;6.95;;;3.28;;
71464;SDS011;59274;49.874;9.154;2023-01-08T09:22:41;8.57;;;3.50;;
71464;SDS011;59274;49.874;9.154;2023-01-08T09:25:06;15.57;;;5.37;;
71464;SDS011;59274;49.874;9.154;2023-01-08T09:27:32;8.40;;;3.80;;
71464;SDS011;59274;49.874;9.154;2023-01-08T09:29:57;7.45;;;3.53;;
71464;SDS011;59274;49.874;9.154;2023-01-08T09:32:23;9.52;;;3.92;;
71464;SDS011;59274;49.874;9.154;2023-01-08T09:34:48;8.33;;;3.93;;
71464;SDS011;59274;49.874;9.154;2023-01-08T09:37:13;10.43;;;3.70;;
71464;SDS011;59274;49.874;9.154;2023-01-08T09:39:39;8.77;;;3.83;;
71464;SDS011;59274;49.874;9.154;2023-01-08T09:42:05;13.48;;;5.57;;
71464;SDS011;59274;49.874;9.154;2023-01-08T09:44:35;8.30;;;4.15;;
71464;SDS011;59274;49.874;9.154;2023-01-08T09:47:02;10.90;;;3.63;;
71464;SDS011;59274;49.874;9.154;2023-01-08T09:49:35;8.55;;;4.00;;
71464;SDS011;59274;49.874;9.154;2023-01-08T09:52:08;9.52;;;4.18;;
71464;SDS011;59274;49.874;9.154;2023-01-08T09:54:36;10.18;;;4.10;;
71464;SDS011;59274;49.874;9.154;2023-01-08T09:57:02;7.20;;;3.83;;
71464;SDS011;59274;49.874;9.154;2023-01-08T09:59:28;9.70;;;4.22;;
71464;SDS011;59274;49.874;9.154;2023-01-08T10:01:54;13.02;;;5.30;;
71464;SDS011;59274;49.874;9.154;2023-01-08T10:04:21;9.47;;;3.83;;
71464;SDS011;59274;49.874;9.154;2023-01-08T10:09:16;9.30;;;3.80;;
71464;SDS011;59274;49.874;9.154;2023-01-08T10:11:48;7.15;;;3.72;;
71464;SDS011;59274;49.874;9.154;2023-01-08T10:14:38;9.03;;;3.90;;
71464;SDS011;59274;49.874;9.154;2023-01-08T10:19:50;9.63;;;4.25;;
71464;SDS011;59274;49.874;9.154;2023-01-08T10:22:17;8.37;;;4.10;;
71464;SDS011;59274;49.874;9.154;2023-01-08T10:24:44;8.77;;;4.38;;
71464;SDS011;59274;49.874;9.154;2023-01-08T10:27:15;7.50;;;3.80;;
71464;SDS011;59274;49.874;9.154;2023-01-08T10:29:42;8.23;;;3.88;;
71464;SDS011;59274;49.874;9.154;2023-01-08T10:32:14;8.45;;;3.65;;
71464;SDS011;59274;49.874;9.154;2023-01-08T10:34:50;7.80;;;3.40;;
71464;SDS011;59274;49.874;9.154;2023-01-08T10:42:55;6.78;;;3.05;;
71464;SDS011;59274;49.874;9.154;2023-01-08T10:45:29;5.85;;;2.80;;
71464;SDS011;59274;49.874;9.154;2023-01-08T10:47:56;5.78;;;2.85;;
71464;SDS011;59274;49.874;9.154;2023-01-08T10:50:28;8.10;;;3.05;;
71464;SDS011;59274;49.874;9.154;2023-01-08T10:53:05;7.88;;;3.03;;
71464;SDS011;59274;49.874;9.154;2023-01-08T10:55:58;8.73;;;3.05;;
71464;SDS011;59274;49.874;9.154;2023-01-08T10:58:28;7.00;;;3.05;;
71464;SDS011;59274;49.874;9.154;2023-01-08T11:00:54;8.27;;;3.37;;
71464;SDS011;59274;49.874;9.154;2023-01-08T11:03:33;8.18;;;2.75;;
71464;SDS011;59274;49.874;9.154;2023-01-08T11:05:59;9.15;;;3.55;;
71464;SDS011;59274;49.874;9.154;2023-01-08T11:08:37;8.67;;;3.57;;
71464;SDS011;59274;49.874;9.154;2023-01-08T11:11:10;9.85;;;4.50;;
71464;SDS011;59274;49.874;9.154;2023-01-08T11:13:35;7.18;;;3.60;;
71464;SDS011;59274;49.874;9.154;2023-01-08T11:16:03;6.90;;;2.83;;
71464;SDS011;59274;49.874;9.154;2023-01-08T11:18:32;5.03;;;2.20;;
71464;SDS011;59274;49.874;9.154;2023-01-08T11:21:08;5.28;;;2.00;;
71464;SDS011;59274;49.874;9.154;2023-01-08T11:23:42;4.55;;;2.00;;
71464;SDS011;59274;49.874;9.154;2023-01-08T11:26:09;4.20;;;1.73;;
71464;SDS011;59274;49.874;9.154;2023-01-08T11:31:25;11.73;;;3.55;;
71464;SDS011;59274;49.874;9.154;2023-01-08T11:33:57;9.07;;;2.90;;
71464;SDS011;59274;49.874;9.154;2023-01-08T11:36:32;19.63;;;6.40;;
71464;SDS011;59274;49.874;9.154;2023-01-08T11:39:00;8.20;;;2.90;;
71464;SDS011;59274;49.874;9.154;2023-01-08T11:41:39;14.65;;;5.40;;
71464;SDS011;59274;49.874;9.154;2023-01-08T11:47:40;6.93;;;2.77;;
71464;SDS011;59274;49.874;9.154;2023-01-08T11:56:51;3.45;;;1.60;;
71464;SDS011;59274;49.874;9.154;2023-01-08T12:07:49;2.78;;;1.40;;
71464;SDS011;59274;49.874;9.154;2023-01-08T12:15:59;2.30;;;1.07;;
71464;SDS011;59274;49.874;9.154;2023-01-08T12:18:45;3.38;;;1.08;;
71464;SDS011;59274;49.874;9.154;2023-01-08T12:21:27;2.60;;;1.30;;
71464;SDS011;59274;49.874;9.154;2023-01-08T12:35:01;2.92;;;1.30;;
71464;SDS011;59274;49.874;9.154;2023-01-08T12:37:43;2.83;;;1.00;;
71464;SDS011;59274;49.874;9.154;2023-01-08T12:42:55;3.87;;;0.93;;
71464;SDS011;59274;49.874;9.154;2023-01-08T12:45:26;2.15;;;1.00;;
71464;SDS011;59274;49.874;9.154;2023-01-08T12:47:54;1.70;;;0.93;;
71464;SDS011;59274;49.874;9.154;2023-01-08T12:50:31;3.30;;;1.08;;
71464;SDS011;59274;49.874;9.154;2023-01-08T12:53:13;2.00;;;1.13;;
71464;SDS011;59274;49.874;9.154;2023-01-08T13:01:44;1.63;;;1.00;;
71464;SDS011;59274;49.874;9.154;2023-01-08T13:04:00;2.47;;;0.88;;
71464;SDS011;59274;49.874;9.154;2023-01-08T13:06:28;1.55;;;0.95;;
71464;SDS011;59274;49.874;9.154;2023-01-08T13:08:55;1.63;;;0.90;;
71464;SDS011;59274;49.874;9.154;2023-01-08T13:14:06;2.65;;;1.10;;
71464;SDS011;59274;49.874;9.154;2023-01-08T13:16:36;2.40;;;1.15;;
71464;SDS011;59274;49.874;9.154;2023-01-08T13:19:03;2.55;;;1.17;;
71464;SDS011;59274;49.874;9.154;2023-01-08T13:24:18;2.53;;;1.20;;
71464;SDS011;59274;49.874;9.154;2023-01-08T13:26:45;3.30;;;1.35;;
71464;SDS011;59274;49.874;9.154;2023-01-08T13:32:02;3.50;;;1.42;;
71464;SDS011;59274;49.874;9.154;2023-01-08T13:37:02;4.75;;;1.67;;
71464;SDS011;59274;49.874;9.154;2023-01-08T13:39:46;3.40;;;1.33;;
71464;SDS011;59274;49.874;9.154;2023-01-08T13:44:49;4.70;;;1.80;;
71464;SDS011;59274;49.874;9.154;2023-01-08T13:49:56;2.92;;;1.40;;
71464;SDS011;59274;49.874;9.154;2023-01-08T13:54:59;2.40;;;1.27;;
71464;SDS011;59274;49.874;9.154;2023-01-08T13:57:29;4.27;;;1.30;;
71464;SDS011;59274;49.874;9.154;2023-01-08T14:00:02;4.28;;;1.40;;
71464;SDS011;59274;49.874;9.154;2023-01-08T14:04:58;3.22;;;1.48;;
71464;SDS011;59274;49.874;9.154;2023-01-08T14:07:25;3.40;;;1.50;;
71464;SDS011;59274;49.874;9.154;2023-01-08T14:09:52;2.37;;;1.40;;
71464;SDS011;59274;49.874;9.154;2023-01-08T14:12:18;3.58;;;1.50;;
71464;SDS011;59274;49.874;9.154;2023-01-08T14:14:55;2.47;;;1.02;;
71464;SDS011;59274;49.874;9.154;2023-01-08T14:17:26;4.50;;;1.63;;
71464;SDS011;59274;49.874;9.154;2023-01-08T14:19:54;4.05;;;1.52;;
71464;SDS011;59274;49.874;9.154;2023-01-08T14:22:22;3.23;;;1.37;;
71464;SDS011;59274;49.874;9.154;2023-01-08T14:24:55;3.70;;;1.58;;
71464;SDS011;59274;49.874;9.154;2023-01-08T14:27:26;3.60;;;1.58;;
71464;SDS011;59274;49.874;9.154;2023-01-08T14:29:53;3.85;;;1.60;;
71464;SDS011;59274;49.874;9.154;2023-01-08T14:32:23;4.63;;;1.48;;
71464;SDS011;59274;49.874;9.154;2023-01-08T14:34:53;5.07;;;1.90;;
71464;SDS011;59274;49.874;9.154;2023-01-08T14:37:21;4.53;;;1.77;;
71464;SDS011;59274;49.874;9.154;2023-01-08T14:39:46;4.07;;;1.60;;
71464;SDS011;59274;49.874;9.154;2023-01-08T14:45:23;3.97;;;1.40;;
71464;SDS011;59274;49.874;9.154;2023-01-08T14:47:52;2.58;;;1.30;;
71464;SDS011;59274;49.874;9.154;2023-01-08T14:52:50;4.30;;;1.47;;
71464;SDS011;59274;49.874;9.154;2023-01-08T14:55:17;3.47;;;1.40;;
71464;SDS011;59274;49.874;9.154;2023-01-08T14:57:51;3.38;;;1.38;;
71464;SDS011;59274;49.874;9.154;2023-01-08T15:00:22;3.20;;;1.50;;
71464;SDS011;59274;49.874;9.154;2023-01-08T15:02:51;2.45;;;1.40;;
71464;SDS011;59274;49.874;9.154;2023-01-08T15:05:18;2.67;;;1.20;;
71464;SDS011;59274;49.874;9.154;2023-01-08T15:10:28;4.82;;;1.50;;
71464;SDS011;59274;49.874;9.154;2023-01-08T15:13:03;3.47;;;1.50;;
71464;SDS011;59274;49.874;9.154;2023-01-08T15:15:39;6.87;;;1.70;;
71464;SDS011;59274;49.874;9.154;2023-01-08T15:18:17;4.65;;;1.52;;
71464;SDS011;59274;49.874;9.154;2023-01-08T15:20:43;4.17;;;1.57;;
71464;SDS011;59274;49.874;9.154;2023-01-08T15:23:17;2.33;;;1.27;;
71464;SDS011;59274;49.874;9.154;2023-01-08T15:25:49;5.05;;;1.60;;
71464;SDS011;59274;49.874;9.154;2023-01-08T15:28:15;3.65;;;1.40;;
71464;SDS011;59274;49.874;9.154;2023-01-08T15:30:44;3.63;;;1.63;;
71464;SDS011;59274;49.874;9.154;2023-01-08T15:33:15;4.15;;;1.50;;
71464;SDS011;59274;49.874;9.154;2023-01-08T15:35:46;4.28;;;2.05;;
71464;SDS011;59274;49.874;9.154;2023-01-08T15:38:13;4.23;;;1.70;;
71464;SDS011;59274;49.874;9.154;2023-01-08T15:40:39;3.35;;;1.60;;
71464;SDS011;59274;49.874;9.154;2023-01-08T15:43:05;2.85;;;1.30;;
71464;SDS011;59274;49.874;9.154;2023-01-08T15:45:37;3.97;;;1.60;;
71464;SDS011;59274;49.874;9.154;2023-01-08T15:48:05;2.58;;;1.23;;
71464;SDS011;59274;49.874;9.154;2023-01-08T15:50:31;3.30;;;1.30;;
71464;SDS011;59274;49.874;9.154;2023-01-08T15:53:01;3.97;;;1.50;;
71464;SDS011;59274;49.874;9.154;2023-01-08T15:55:27;6.38;;;2.50;;
71464;SDS011;59274;49.874;9.154;2023-01-08T15:57:52;4.00;;;1.50;;
71464;SDS011;59274;49.874;9.154;2023-01-08T16:00:20;3.88;;;1.50;;
71464;SDS011;59274;49.874;9.154;2023-01-08T16:02:50;4.40;;;1.60;;
71464;SDS011;59274;49.874;9.154;2023-01-08T16:05:17;3.22;;;1.40;;
71464;SDS011;59274;49.874;9.154;2023-01-08T16:07:44;4.43;;;1.47;;
71464;SDS011;59274;49.874;9.154;2023-01-08T16:10:10;4.43;;;1.60;;
71464;SDS011;59274;49.874;9.154;2023-01-08T16:12:36;4.00;;;1.40;;
71464;SDS011;59274;49.874;9.154;2023-01-08T16:15:02;4.37;;;1.67;;
71464;SDS011;59274;49.874;9.154;2023-01-08T16:17:28;5.72;;;2.10;;
71464;SDS011;59274;49.874;9.154;2023-01-08T16:19:54;3.80;;;1.67;;
71464;SDS011;59274;49.874;9.154;2023-01-08T16:22:20;4.70;;;1.80;;
71464;SDS011;59274;49.874;9.154;2023-01-08T16:24:45;5.30;;;1.70;;
71464;SDS011;59274;49.874;9.154;2023-01-08T16:27:10;4.40;;;1.58;;
71464;SDS011;59274;49.874;9.154;2023-01-08T16:29:36;4.88;;;1.40;;
71464;SDS011;59274;49.874;9.154;2023-01-08T16:32:01;4.07;;;1.50;;
71464;SDS011;59274;49.874;9.154;2023-01-08T16:34:27;3.20;;;1.57;;
71464;SDS011;59274;49.874;9.154;2023-01-08T16:36:52;4.13;;;1.60;;